Time;durP1;ratioP1;P1;durP2;ratioP2;P2;SDS_P1;SDS_P2;PMS_P1;PMS_P2;Temp;Humidity;BMP_temperature;BMP_pressure;BME280_temperature;BME280_humidity;BME280_pressure;Samples;Min_cycle;Max_cycle;Signal;HPM_P1;HPM_P2
2023/09/16 00:01:23;;;;;;;;;;;;;;;18.91;58.96;100360.84;4975561;28;6823;-75
2023/09/16 00:03:49;;;;;;;;;;;;;;;18.86;59.21;100364.25;4990817;28;6965;-75
2023/09/16 00:06:14;;;;;;;;;;;;;;;18.83;59.52;100363.34;4992411;28;6792;-75
2023/09/16 00:08:42;;;;;;;;;;;;;;;18.78;59.54;100368.47;4958430;28;6956;-75
2023/09/16 00:11:10;;;;;;;;;;;;;;;18.73;59.50;100368.44;4971294;28;6815;-75
2023/09/16 00:13:36;;;;;;;;;;;;;;;18.71;59.89;100357.13;4963314;28;6986;-75
2023/09/16 00:16:01;;;;;;;;;;;;;;;18.72;59.64;100364.06;4995158;28;7172;-75
2023/09/16 00:18:27;;;;;;;;;;;;;;;18.75;59.49;100363.25;4978454;28;6980;-75
2023/09/16 00:20:52;;;;;;;;;;;;;;;18.78;59.82;100360.66;4976635;28;6799;-75
2023/09/16 00:23:18;;;;;;;;;;;;;;;18.84;60.49;100362.50;4982555;28;6779;-75
2023/09/16 00:25:45;;;;;;;;;;;;;;;18.90;60.34;100356.53;4959588;28;7131;-75
2023/09/16 00:28:11;;;;;;;;;;;;;;;18.96;60.28;100357.47;4980946;28;6812;-75
2023/09/16 00:30:39;;;;;;;;;;;;;;;19.06;60.52;100362.81;4973461;28;6982;-75
2023/09/16 00:33:05;;;;;;;;;;;;;;;19.14;60.74;100353.41;4967097;28;7221;-75
2023/09/16 00:35:30;;;;;;;;;;;;;;;19.23;60.09;100356.09;4979442;28;6801;-73
2023/09/16 00:37:56;;;;;;;;;;;;;;;19.32;60.22;100355.31;4970411;28;6967;-74
2023/09/16 00:40:21;;;;;;;;;;;;;;;19.39;60.78;100351.06;4976043;28;6981;-75
2023/09/16 00:42:47;;;;;;;;;;;;;;;19.47;60.21;100354.59;4987909;28;6791;-74
2023/09/16 00:45:14;;;;;;;;;;;;;;;19.54;60.60;100356.44;4976467;28;6958;-73
2023/09/16 00:47:40;;;;;;;;;;;;;;;19.61;60.05;100343.50;4973946;28;6911;-74
2023/09/16 00:50:07;;;;;;;;;;;;;;;19.65;60.03;100343.56;4980237;28;6976;-74
2023/09/16 00:52:37;;;;;;;;;;;;;;;19.70;60.25;100340.97;4959092;28;7199;-72
2023/09/16 00:55:04;;;;;;;;;;;;;;;19.74;60.03;100347.94;4994685;28;7005;-73
2023/09/16 00:57:31;;;;;;;;;;;;;;;19.76;59.96;100341.03;4978645;28;6792;-75
2023/09/16 00:59:57;;;;;;;;;;;;;;;19.80;60.05;100332.41;4976359;28;6835;-74
2023/09/16 01:02:23;;;;;;;;;;;;;;;19.82;60.27;100335.91;4974984;28;7101;-72
2023/09/16 01:04:49;;;;;;;;;;;;;;;19.83;59.87;100340.22;4978735;28;7239;-73
2023/09/16 01:07:15;;;;;;;;;;;;;;;19.82;59.46;100338.50;4978022;28;6927;-74
2023/09/16 01:09:41;;;;;;;;;;;;;;;19.80;59.60;100337.63;4975401;28;8343;-73
2023/09/16 01:12:10;;;;;;;;;;;;;;;19.78;59.40;100336.72;4979535;28;6792;-73
2023/09/16 01:14:37;;;;;;;;;;;;;;;19.75;59.20;100330.59;4990252;28;6808;-76
2023/09/16 01:17:14;;;;;;;;;;;;;;;19.71;59.10;100340.13;4978978;28;6820;-73
2023/09/16 01:20:01;;;;;;;;;;;;;;;19.68;59.37;100329.69;4979555;28;6820;-73
2023/09/16 01:22:27;;;;;;;;;;;;;;;19.65;59.37;100330.56;4972374;28;6988;-73
2023/09/16 01:24:54;;;;;;;;;;;;;;;19.65;59.24;100332.25;4995050;28;6920;-75
2023/09/16 01:27:21;;;;;;;;;;;;;;;19.65;59.60;100332.25;4996242;28;6819;-73
2023/09/16 01:29:47;;;;;;;;;;;;;;;19.66;59.30;100331.41;4976942;28;6820;-74
2023/09/16 01:32:16;;;;;;;;;;;;;;;19.67;59.76;100326.22;4974059;28;7212;-73
2023/09/16 01:34:45;;;;;;;;;;;;;;;19.72;60.06;100328.88;4969976;28;6968;-73
2023/09/16 01:37:18;;;;;;;;;;;;;;;19.75;59.43;100330.59;4979103;28;6807;-76
2023/09/16 01:39:56;;;;;;;;;;;;;;;19.78;59.75;100322.84;4971504;28;6823;-74
2023/09/16 01:42:22;;;;;;;;;;;;;;;19.78;59.97;100328.06;4995780;28;7014;-73
2023/09/16 01:44:48;;;;;;;;;;;;;;;19.78;59.45;100326.31;4952484;28;6973;-73
2023/09/16 01:47:14;;;;;;;;;;;;;;;19.77;60.13;100321.13;4975845;28;6880;-74
2023/09/16 01:49:39;;;;;;;;;;;;;;;19.72;59.52;100318.47;4977356;28;6863;-75
2023/09/16 01:52:05;;;;;;;;;;;;;;;19.67;59.87;100321.03;4960246;28;6967;-74
2023/09/16 01:54:31;;;;;;;;;;;;;;;19.64;59.72;100320.13;4971087;28;7202;-74
2023/09/16 01:56:56;;;;;;;;;;;;;;;19.55;59.38;100319.19;4977550;28;7018;-74
2023/09/16 01:59:21;;;;;;;;;;;;;;;19.51;59.13;100316.53;4974906;28;6856;-73
2023/09/16 02:01:47;;;;;;;;;;;;;;;19.44;59.75;100313.00;4980769;28;7094;-73
2023/09/16 02:04:12;;;;;;;;;;;;;;;19.41;59.81;100323.34;4974403;28;7039;-74
2023/09/16 02:06:38;;;;;;;;;;;;;;;19.33;59.57;100319.81;4970408;28;7183;-74
2023/09/16 02:09:04;;;;;;;;;;;;;;;19.29;59.78;100319.78;4978902;28;6775;-75
2023/09/16 02:11:31;;;;;;;;;;;;;;;19.27;60.02;100323.22;4976759;28;6975;-73
2023/09/16 02:13:58;;;;;;;;;;;;;;;19.24;60.52;100329.25;4955873;28;7253;-74
2023/09/16 02:16:23;;;;;;;;;;;;;;;19.19;60.08;100317.94;4984735;28;8183;-74
2023/09/16 02:18:49;;;;;;;;;;;;;;;19.17;60.39;100319.66;4954783;28;6989;-73
2023/09/16 02:21:15;;;;;;;;;;;;;;;19.14;60.43;100314.44;4979969;28;6819;-73
2023/09/16 02:23:41;;;;;;;;;;;;;;;19.14;60.66;100317.03;4983768;28;6999;-74
2023/09/16 02:26:06;;;;;;;;;;;;;;;19.11;60.47;100316.97;4967660;28;6954;-73
2023/09/16 02:28:32;;;;;;;;;;;;;;;19.11;60.77;100319.56;4982410;28;6784;-76
2023/09/16 02:30:57;;;;;;;;;;;;;;;19.10;60.42;100317.81;4981703;28;7212;-75
2023/09/16 02:33:23;;;;;;;;;;;;;;;19.09;60.75;100314.38;4975858;28;6999;-74
2023/09/16 02:35:48;;;;;;;;;;;;;;;19.08;60.61;100317.84;4980506;28;6839;-75
2023/09/16 02:38:13;;;;;;;;;;;;;;;19.07;60.93;100320.41;4970199;28;6980;-74
2023/09/16 02:40:40;;;;;;;;;;;;;;;19.06;60.86;100316.91;4955954;28;7013;-75
2023/09/16 02:43:06;;;;;;;;;;;;;;;19.04;60.62;100308.25;4980587;28;9296;-75
2023/09/16 02:45:32;;;;;;;;;;;;;;;19.04;61.39;100307.38;4980237;28;6788;-75
2023/09/16 02:47:57;;;;;;;;;;;;;;;19.05;61.07;100309.97;4978800;28;6972;-75
2023/09/16 02:50:23;;;;;;;;;;;;;;;19.06;61.46;100314.31;4986749;28;6779;-75
2023/09/16 02:52:48;;;;;;;;;;;;;;;19.09;61.46;100316.97;4966268;28;7302;-75
2023/09/16 02:55:16;;;;;;;;;;;;;;;19.11;61.33;100314.38;4982114;28;6823;-75
2023/09/16 02:57:41;;;;;;;;;;;;;;;19.13;61.25;100317.88;4981859;28;6992;-75
2023/09/16 03:00:07;;;;;;;;;;;;;;;19.15;61.42;100317.03;4972460;28;6792;-74
2023/09/16 03:02:33;;;;;;;;;;;;;;;19.18;61.22;100311.00;4965632;28;6994;-75
2023/09/16 03:04:58;;;;;;;;;;;;;;;19.22;61.08;100318.00;4980984;28;6992;-75
2023/09/16 03:07:24;;;;;;;;;;;;;;;19.24;60.77;100311.06;4961684;28;7012;-75
2023/09/16 03:09:49;;;;;;;;;;;;;;;19.23;61.01;100306.72;4981472;28;7531;-75
2023/09/16 03:12:15;;;;;;;;;;;;;;;19.23;60.63;100311.03;4975852;28;7111;-75
2023/09/16 03:14:40;;;;;;;;;;;;;;;19.17;60.71;100309.25;4973920;28;6836;-75
2023/09/16 03:17:06;;;;;;;;;;;;;;;19.13;60.60;100307.50;4968875;28;6811;-75
2023/09/16 03:19:31;;;;;;;;;;;;;;;19.05;60.46;100303.94;4980255;28;6867;-74
2023/09/16 03:21:57;;;;;;;;;;;;;;;19.00;60.40;100302.13;4998448;28;6795;-74
2023/09/16 03:24:22;;;;;;;;;;;;;;;18.97;61.07;100309.88;4980398;28;7217;-74
2023/09/16 03:26:48;;;;;;;;;;;;;;;18.93;61.36;100300.31;4956190;28;7006;-74
2023/09/16 03:29:13;;;;;;;;;;;;;;;18.89;60.99;100306.31;4964995;28;7121;-74
2023/09/16 03:31:39;;;;;;;;;;;;;;;18.85;60.79;100314.91;4980521;28;6791;-74
2023/09/16 03:34:04;;;;;;;;;;;;;;;18.81;61.04;100300.13;4978430;28;6776;-74
2023/09/16 03:36:30;;;;;;;;;;;;;;;18.78;60.59;100305.31;4981170;28;6792;-74
2023/09/16 03:38:55;;;;;;;;;;;;;;;18.74;60.90;100301.78;4982119;28;6855;-74
2023/09/16 03:41:21;;;;;;;;;;;;;;;18.72;61.07;100298.31;4974871;28;8073;-74
2023/09/16 03:43:47;;;;;;;;;;;;;;;18.68;61.07;100301.69;4981826;28;6888;-75
2023/09/16 03:46:12;;;;;;;;;;;;;;;18.63;60.75;100300.78;4982716;28;6804;-75
2023/09/16 03:48:38;;;;;;;;;;;;;;;18.59;61.05;100292.97;4964235;28;6949;-75
2023/09/16 03:51:06;;;;;;;;;;;;;;;18.55;61.68;100293.75;4980741;28;6990;-75
2023/09/16 03:53:33;;;;;;;;;;;;;;;18.53;60.91;100289.38;4995784;28;6996;-75
2023/09/16 03:55:59;;;;;;;;;;;;;;;18.49;61.15;100285.03;4982936;28;6891;-75
2023/09/16 03:58:24;;;;;;;;;;;;;;;18.44;61.54;100282.38;4970676;28;6788;-75
2023/09/16 04:00:49;;;;;;;;;;;;;;;18.41;61.32;100285.78;4976336;28;6776;-75
2023/09/16 04:03:15;;;;;;;;;;;;;;;18.38;61.56;100284.88;4994895;28;6804;-75
2023/09/16 04:05:41;;;;;;;;;;;;;;;18.36;61.16;100282.28;4962946;28;6951;-75
2023/09/16 04:08:06;;;;;;;;;;;;;;;18.34;61.50;100283.09;4968575;28;6859;-75
2023/09/16 04:10:32;;;;;;;;;;;;;;;18.34;61.97;100280.50;4982657;28;6852;-75
2023/09/16 04:12:57;;;;;;;;;;;;;;;18.34;61.74;100281.34;4980917;28;6946;-75
2023/09/16 04:15:23;;;;;;;;;;;;;;;18.36;61.72;100274.50;4955028;28;6975;-75
2023/09/16 04:17:51;;;;;;;;;;;;;;;18.38;62.24;100270.19;4976226;28;6815;-75
2023/09/16 04:20:18;;;;;;;;;;;;;;;18.40;61.97;100267.63;4976800;28;7133;-75
2023/09/16 04:22:44;;;;;;;;;;;;;;;18.41;62.22;100267.63;4998793;28;7034;-75
2023/09/16 04:25:10;;;;;;;;;;;;;;;18.41;62.39;100269.38;4955490;28;7034;-75
2023/09/16 04:27:35;;;;;;;;;;;;;;;18.40;61.95;100270.22;4974416;28;6792;-75
2023/09/16 04:30:01;;;;;;;;;;;;;;;18.39;62.00;100278.81;4976939;28;6865;-75
2023/09/16 04:32:26;;;;;;;;;;;;;;;18.37;61.81;100273.63;4977422;28;6792;-75
2023/09/16 04:34:55;;;;;;;;;;;;;;;18.36;62.14;100271.91;4977012;28;6915;-75
2023/09/16 04:37:21;;;;;;;;;;;;;;;18.35;61.80;100267.56;4960600;28;7049;-75
2023/09/16 04:39:46;;;;;;;;;;;;;;;18.35;61.82;100270.16;4974910;28;7370;-75
2023/09/16 04:42:12;;;;;;;;;;;;;;;18.30;62.04;100267.50;4952508;28;7159;-75
2023/09/16 04:44:38;;;;;;;;;;;;;;;18.31;61.67;100265.75;4993755;28;6976;-75
2023/09/16 04:47:07;;;;;;;;;;;;;;;18.27;61.82;100263.97;4970869;28;6867;-75
2023/09/16 04:49:33;;;;;;;;;;;;;;;18.27;61.92;100269.16;4959467;28;7006;-75
2023/09/16 04:51:59;;;;;;;;;;;;;;;18.26;61.97;100263.09;4984351;28;6800;-75
2023/09/16 04:54:24;;;;;;;;;;;;;;;18.26;62.49;100259.66;4963071;28;6833;-75
2023/09/16 04:56:50;;;;;;;;;;;;;;;18.27;62.28;100258.78;4982520;28;6856;-75
2023/09/16 04:59:15;;;;;;;;;;;;;;;18.27;62.37;100266.56;4971018;28;6772;-75
2023/09/16 05:01:41;;;;;;;;;;;;;;;18.28;62.91;100266.56;4968559;28;7101;-75
2023/09/16 05:04:06;;;;;;;;;;;;;;;18.30;62.90;100266.59;4980956;28;6768;-75
2023/09/16 05:06:32;;;;;;;;;;;;;;;18.33;62.83;100269.22;4979951;28;6783;-75
2023/09/16 05:08:57;;;;;;;;;;;;;;;18.37;63.34;100267.56;4971723;28;7102;-75
2023/09/16 05:11:23;;;;;;;;;;;;;;;18.40;62.97;100263.28;4963097;28;7146;-75
2023/09/16 05:13:50;;;;;;;;;;;;;;;18.42;63.13;100258.97;4973892;28;6957;-75
2023/09/16 05:16:16;;;;;;;;;;;;;;;18.44;62.61;100265.06;4955257;28;7337;-75
2023/09/16 05:18:41;;;;;;;;;;;;;;;18.45;62.90;100266.84;4976983;28;6827;-75
2023/09/16 05:21:07;;;;;;;;;;;;;;;18.46;62.79;100265.97;4972920;28;6772;-75
2023/09/16 05:23:34;;;;;;;;;;;;;;;18.49;63.15;100261.66;4970838;28;7199;-75
2023/09/16 05:25:59;;;;;;;;;;;;;;;18.50;63.03;100268.59;4975685;28;7146;-75
2023/09/16 05:28:25;;;;;;;;;;;;;;;18.50;63.01;100272.09;4970271;28;6819;-75
2023/09/16 05:30:50;;;;;;;;;;;;;;;18.51;63.11;100266.03;4974698;28;6815;-75
2023/09/16 05:33:16;;;;;;;;;;;;;;;18.52;63.06;100261.69;4957784;28;7216;-78
2023/09/16 05:35:41;;;;;;;;;;;;;;;18.55;62.60;100266.94;4966624;28;7022;-75
2023/09/16 05:38:08;;;;;;;;;;;;;;;18.56;63.38;100259.16;4958026;28;6971;-75
2023/09/16 05:40:36;;;;;;;;;;;;;;;18.59;63.55;100255.75;4970531;28;6814;-76
2023/09/16 05:43:02;;;;;;;;;;;;;;;18.62;63.29;100258.38;4977811;28;6955;-76
2023/09/16 05:45:27;;;;;;;;;;;;;;;18.66;63.44;100259.28;4980380;28;7107;-75
2023/09/16 05:47:53;;;;;;;;;;;;;;;18.68;63.52;100258.47;4956442;28;6975;-75
2023/09/16 05:50:18;;;;;;;;;;;;;;;18.70;62.71;100259.34;4974630;28;7185;-77
2023/09/16 05:52:44;;;;;;;;;;;;;;;18.71;62.89;100253.28;4974651;28;6788;-77
2023/09/16 05:55:09;;;;;;;;;;;;;;;18.73;62.92;100259.41;4975989;28;6796;-76
2023/09/16 05:57:35;;;;;;;;;;;;;;;18.77;63.13;100257.69;4972677;28;6856;-75
2023/09/16 06:00:01;;;;;;;;;;;;;;;18.78;62.88;100256.81;4975458;28;7308;-76
2023/09/16 06:02:27;;;;;;;;;;;;;;;18.81;63.21;100259.47;4970522;28;8154;-75
2023/09/16 06:04:52;;;;;;;;;;;;;;;18.86;63.20;100262.97;4974072;28;7193;-77
2023/09/16 06:07:18;;;;;;;;;;;;;;;18.91;63.12;100260.44;4994119;28;6784;-76
2023/09/16 06:09:43;;;;;;;;;;;;;;;18.97;63.45;100262.22;4973200;28;6964;-77
2023/09/16 06:12:09;;;;;;;;;;;;;;;19.02;63.24;100258.00;4947344;28;6972;-74
2023/09/16 06:14:34;;;;;;;;;;;;;;;19.07;63.32;100269.31;4970436;28;6888;-77
2023/09/16 06:17:00;;;;;;;;;;;;;;;19.13;63.18;100255.53;4974316;28;6775;-77
2023/09/16 06:19:27;;;;;;;;;;;;;;;19.21;62.91;100260.81;4977389;28;6780;-77
2023/09/16 06:21:54;;;;;;;;;;;;;;;19.27;62.76;100253.94;4958660;28;7361;-78
2023/09/16 06:24:20;;;;;;;;;;;;;;;19.33;63.32;100263.53;4960435;28;7134;-77
2023/09/16 06:26:45;;;;;;;;;;;;;;;19.40;62.93;100262.72;4972473;28;6852;-76
2023/09/16 06:29:10;;;;;;;;;;;;;;;19.49;63.13;100263.69;4969759;28;7196;-78
2023/09/16 06:31:36;;;;;;;;;;;;;;;19.57;62.84;100269.81;4973134;28;6975;-76
2023/09/16 06:34:02;;;;;;;;;;;;;;;19.67;62.85;100268.16;4958017;28;7171;-75
2023/09/16 06:36:28;;;;;;;;;;;;;;;19.75;62.80;100270.81;4961107;28;7231;-77
2023/09/16 06:38:54;;;;;;;;;;;;;;;19.82;62.39;100270.88;4991328;28;6902;-78
2023/09/16 06:41:19;;;;;;;;;;;;;;;19.90;62.19;100270.09;4977653;28;7310;-78
2023/09/16 06:43:45;;;;;;;;;;;;;;;19.98;62.45;100279.69;4967343;28;7108;-77
2023/09/16 06:46:10;;;;;;;;;;;;;;;20.05;62.26;100271.97;4974677;28;7303;-77
2023/09/16 06:48:36;;;;;;;;;;;;;;;20.12;62.51;100269.41;4971598;28;6791;-78
2023/09/16 06:51:01;;;;;;;;;;;;;;;20.21;62.49;100268.56;4976094;28;6965;-77
2023/09/16 06:53:28;;;;;;;;;;;;;;;20.30;62.02;100277.28;4976013;28;6796;-76
2023/09/16 06:55:53;;;;;;;;;;;;;;;20.37;61.91;100274.72;4986867;28;7002;-76
2023/09/16 06:58:20;;;;;;;;;;;;;;;20.45;61.85;100285.19;4950263;28;6968;-76
2023/09/16 07:00:48;;;;;;;;;;;;;;;20.55;61.79;100280.91;4962237;28;7019;-77
2023/09/16 07:03:13;;;;;;;;;;;;;;;20.61;61.93;100285.25;4982985;28;7118;-77
2023/09/16 07:05:39;;;;;;;;;;;;;;;20.72;62.14;100285.31;4980441;28;7333;-78
2023/09/16 07:08:04;;;;;;;;;;;;;;;20.84;61.43;100276.72;4982059;28;6776;-77
2023/09/16 07:10:30;;;;;;;;;;;;;;;20.95;61.27;100282.84;4980013;28;6860;-77
2023/09/16 07:12:55;;;;;;;;;;;;;;;21.08;61.53;100281.16;4981538;28;7090;-78
2023/09/16 07:15:21;;;;;;;;;;;;;;;21.19;61.33;100284.66;4999150;28;6963;-77
2023/09/16 07:17:46;;;;;;;;;;;;;;;21.31;61.19;100280.31;4956764;28;7014;-76
2023/09/16 07:20:12;;;;;;;;;;;;;;;21.42;61.07;100278.59;4978730;28;6922;-76
2023/09/16 07:22:38;;;;;;;;;;;;;;;21.54;60.49;100284.72;4952269;28;6950;-78
2023/09/16 07:25:06;;;;;;;;;;;;;;;21.66;60.65;100284.72;4967616;28;7369;-77
2023/09/16 07:27:32;;;;;;;;;;;;;;;21.77;60.69;100283.00;4973699;28;6935;-77
2023/09/16 07:29:58;;;;;;;;;;;;;;;21.90;60.22;100281.25;4956715;28;6798;-78
2023/09/16 07:32:23;;;;;;;;;;;;;;;22.03;60.25;100279.50;4977811;28;7330;-77
2023/09/16 07:34:49;;;;;;;;;;;;;;;22.13;59.86;100280.34;4993173;28;7166;-74
2023/09/16 07:37:14;;;;;;;;;;;;;;;22.22;60.06;100282.09;4980553;28;6779;-74
2023/09/16 07:39:40;;;;;;;;;;;;;;;22.30;59.09;100293.34;4981350;28;7206;-74
2023/09/16 07:42:05;;;;;;;;;;;;;;;22.39;59.32;100278.53;4983583;28;6871;-75
2023/09/16 07:44:31;;;;;;;;;;;;;;;;;;4967817;28;6980;-73
2023/09/16 07:46:56;;;;;;;;;;;;;;;22.57;59.33;100288.13;4980879;28;6795;-74
2023/09/16 07:49:22;;;;;;;;;;;;;;;22.68;58.98;100277.59;4978238;28;6939;-73
2023/09/16 07:51:48;;;;;;;;;;;;;;;22.78;58.84;100284.53;4953999;28;6972;-76
2023/09/16 07:54:14;;;;;;;;;;;;;;;22.89;58.75;100285.38;4981097;28;6808;-75
2023/09/16 07:56:39;;;;;;;;;;;;;;;22.99;58.95;100286.19;4981584;28;6999;-75
2023/09/16 07:59:05;;;;;;;;;;;;;;;23.09;58.31;100279.16;4966383;28;7022;-73
2023/09/16 08:01:30;;;;;;;;;;;;;;;23.23;58.46;100289.53;4975766;28;7081;-73
2023/09/16 08:03:56;;;;;;;;;;;;;;;23.35;57.93;100283.38;4990924;28;6940;-74
2023/09/16 08:06:22;;;;;;;;;;;;;;;23.45;57.84;100286.81;4973724;28;6959;-73
2023/09/16 08:08:49;;;;;;;;;;;;;;;23.54;57.73;100281.50;4974782;28;6840;-73
2023/09/16 08:11:15;;;;;;;;;;;;;;;23.64;57.58;100290.13;4977811;28;7184;-76
2023/09/16 08:13:40;;;;;;;;;;;;;;;23.75;56.89;100291.78;4992280;28;7036;-75
2023/09/16 08:16:06;;;;;;;;;;;;;;;23.85;56.55;100293.44;4976755;28;7038;-74
2023/09/16 08:18:31;;;;;;;;;;;;;;;23.94;57.19;100290.75;4978928;28;6944;-74
2023/09/16 08:20:57;;;;;;;;;;;;;;;24.03;56.97;100289.81;4976944;28;7173;-75
2023/09/16 08:23:22;;;;;;;;;;;;;;;24.12;56.52;100284.53;4962763;28;6947;-73
2023/09/16 08:25:48;;;;;;;;;;;;;;;24.22;56.29;100295.75;4972295;28;8774;-76
2023/09/16 08:28:13;;;;;;;;;;;;;;;24.27;56.27;100287.84;4975832;28;7251;-74
2023/09/16 08:30:39;;;;;;;;;;;;;;;24.34;56.38;100294.75;4972808;28;6772;-76
2023/09/16 08:33:04;;;;;;;;;;;;;;;24.40;56.59;100294.72;4975123;28;6804;-73
2023/09/16 08:35:30;;;;;;;;;;;;;;;24.51;56.39;100296.34;4977907;28;6815;-74
2023/09/16 08:37:58;;;;;;;;;;;;;;;24.62;56.56;100306.66;4986318;28;7384;-73
2023/09/16 08:40:23;;;;;;;;;;;;;;;24.74;56.53;100308.28;4976467;28;7327;-74
2023/09/16 08:43:10;;;;;;;;;;;;;;;24.86;56.39;100302.06;4970971;28;7136;-75
2023/09/16 08:45:55;;;;;;;;;;;;;;;24.96;55.60;100314.16;4982739;28;7236;-74
2023/09/16 08:48:25;;;;;;;;;;;;;;;25.06;55.48;100309.63;4982147;28;6815;-76
2023/09/16 08:50:53;;;;;;;;;;;;;;;25.16;55.34;100313.03;4982766;28;7151;-74
2023/09/16 08:53:19;;;;;;;;;;;;;;;25.26;55.00;100319.88;4966297;28;6983;-74
2023/09/16 08:55:45;;;;;;;;;;;;;;;25.37;54.93;100317.94;4960380;28;7336;-73
2023/09/16 08:58:10;;;;;;;;;;;;;;;25.43;54.73;100314.38;4969231;28;6970;-74
2023/09/16 09:00:37;;;;;;;;;;;;;;;25.53;54.40;100315.13;4976827;28;6862;-75
2023/09/16 09:03:03;;;;;;;;;;;;;;;25.61;54.00;100313.25;4958348;28;7018;-74
2023/09/16 09:05:30;;;;;;;;;;;;;;;25.73;54.11;100308.69;4980160;28;7006;-73
2023/09/16 09:07:56;;;;;;;;;;;;;;;25.84;53.69;100313.78;4983070;28;7109;-74
2023/09/16 09:10:22;;;;;;;;;;;;;;;25.96;53.55;100313.56;4983213;28;6965;-76
2023/09/16 09:12:49;;;;;;;;;;;;;;;26.07;53.31;100316.84;4956950;28;8419;-74
2023/09/16 09:15:15;;;;;;;;;;;;;;;26.19;52.50;100317.53;4981726;28;7131;-74
2023/09/16 09:17:54;;;;;;;;;;;;;;;26.29;52.63;100320.91;4977668;28;6808;-76
2023/09/16 09:20:26;;;;;;;;;;;;;;;26.38;52.90;100319.84;4981480;28;7207;-74
2023/09/16 09:22:52;;;;;;;;;;;;;;;26.43;52.45;100326.75;4983101;28;7211;-74
2023/09/16 09:25:21;;;;;;;;;;;;;;;26.48;52.41;100329.28;4960541;28;6961;-74
2023/09/16 09:27:48;;;;;;;;;;;;;;;26.51;52.18;100328.34;4982191;28;7102;-75
2023/09/16 09:30:13;;;;;;;;;;;;;;;26.55;52.13;100328.28;4971458;28;6971;-74
2023/09/16 09:32:43;;;;;;;;;;;;;;;26.62;52.69;100334.25;4981445;28;6848;-75
2023/09/16 09:35:11;;;;;;;;;;;;;;;26.70;52.48;100334.97;4983434;28;6818;-74
2023/09/16 09:37:36;;;;;;;;;;;;;;;26.79;52.01;100338.31;4961354;28;6997;-75
2023/09/16 09:40:05;;;;;;;;;;;;;;;26.87;51.89;100336.41;4973374;28;7386;-74
2023/09/16 09:42:31;;;;;;;;;;;;;;;26.96;51.59;100333.63;4956827;28;6975;-74
2023/09/16 09:45:02;;;;;;;;;;;;;;;27.05;51.24;100332.53;4961908;28;7362;-74
2023/09/16 09:47:28;;;;;;;;;;;;;;;27.11;51.11;100334.16;4980138;28;7010;-74
2023/09/16 09:49:53;;;;;;;;;;;;;;;27.18;50.66;100339.25;4958606;28;8219;-74
2023/09/16 09:52:19;;;;;;;;;;;;;;;27.23;50.54;100327.78;4983243;28;7395;-74
2023/09/16 09:54:45;;;;;;;;;;;;;;;27.31;50.66;100329.31;4981026;28;6792;-73
2023/09/16 09:57:10;;;;;;;;;;;;;;;27.38;50.21;100329.19;4984358;28;6783;-76
2023/09/16 09:59:36;;;;;;;;;;;;;;;27.44;50.20;100323.78;4959423;28;7321;-74
2023/09/16 10:02:04;;;;;;;;;;;;;;;27.51;49.79;100321.88;4978188;28;6791;-74
2023/09/16 10:04:30;;;;;;;;;;;;;;;27.58;50.08;100332.25;4982492;28;7027;-74
2023/09/16 10:06:57;;;;;;;;;;;;;;;27.70;50.16;100322.31;4981019;28;6803;-75
2023/09/16 10:09:22;;;;;;;;;;;;;;;27.82;49.25;100322.03;4964748;28;6973;-76
2023/09/16 10:11:48;;;;;;;;;;;;;;;27.94;49.37;100318.19;4974258;28;6971;-75
2023/09/16 10:14:14;;;;;;;;;;;;;;;28.13;48.97;100320.34;4979846;28;6987;-76
2023/09/16 10:16:40;;;;;;;;;;;;;;;28.47;47.92;100316.84;4972026;28;6796;-76
2023/09/16 10:19:05;;;;;;;;;;;;;;;29.18;46.65;100310.41;4973322;28;7145;-76
2023/09/16 10:21:31;;;;;;;;;;;;;;;30.15;45.97;100316.09;4951473;28;8506;-76
2023/09/16 10:23:57;;;;;;;;;;;;;;;31.28;43.80;100313.69;4954205;28;7394;-75
2023/09/16 10:26:22;;;;;;;;;;;;;;;32.43;41.95;100308.91;4956803;28;6957;-73
2023/09/16 10:28:52;;;;;;;;;;;;;;;33.57;39.97;100309.81;4973486;28;7384;-74
2023/09/16 10:31:18;;;;;;;;;;;;;;;34.67;38.89;100313.06;4978772;28;7224;-74
2023/09/16 10:33:43;;;;;;;;;;;;;;;35.55;37.33;100312.59;4997585;28;6812;-74
2023/09/16 10:36:11;;;;;;;;;;;;;;;36.17;36.31;100308.97;4967341;28;6804;-74
2023/09/16 10:38:37;;;;;;;;;;;;;;;36.86;35.03;100310.91;4972985;28;10457;-74
2023/09/16 10:41:05;;;;;;;;;;;;;;;37.44;33.45;100305.41;4980112;28;6826;-74
2023/09/16 10:43:31;;;;;;;;;;;;;;;37.87;32.82;100308.81;4992202;28;6866;-74
2023/09/16 10:45:57;;;;;;;;;;;;;;;38.09;31.81;100308.19;4983849;28;6803;-74
2023/09/16 10:48:22;;;;;;;;;;;;;;;38.26;31.12;100301.69;4980097;28;7101;-74
2023/09/16 10:50:53;;;;;;;;;;;;;;;38.43;30.88;100295.13;4978835;28;8498;-73
2023/09/16 10:53:26;;;;;;;;;;;;;;;38.57;30.57;100295.97;4977734;28;6933;-74
2023/09/16 10:56:23;;;;;;;;;;;;;;;38.75;30.12;100299.13;4980286;28;6824;-74
2023/09/16 10:58:55;;;;;;;;;;;;;;;38.80;29.57;100296.97;4982921;28;7002;-74
2023/09/16 11:01:47;;;;;;;;;;;;;;;38.68;29.35;100289.84;4975910;28;7039;-74
2023/09/16 11:04:18;;;;;;;;;;;;;;;38.42;29.49;100292.53;4998255;28;6815;-76
2023/09/16 11:06:48;;;;;;;;;;;;;;;38.28;29.12;100294.38;4979931;28;7010;-73
2023/09/16 11:09:14;;;;;;;;;;;;;;;38.06;28.93;100295.91;4961446;28;7309;-75
2023/09/16 11:11:41;;;;;;;;;;;;;;;37.83;28.52;100289.47;4983534;28;7245;-75
2023/09/16 11:14:08;;;;;;;;;;;;;;;37.71;29.02;100283.13;4995748;28;6992;-73
2023/09/16 11:16:52;;;;;;;;;;;;;;;37.86;28.71;100291.91;4976162;28;7277;-74
2023/09/16 11:19:23;;;;;;;;;;;;;;;38.14;28.76;100284.66;4984972;28;6816;-78
2023/09/16 11:21:50;;;;;;;;;;;;;;;38.42;28.16;100276.47;4981715;28;6951;-73
2023/09/16 11:24:16;;;;;;;;;;;;;;;38.61;27.63;100282.25;4976342;28;6855;-74
2023/09/16 11:26:46;;;;;;;;;;;;;;;38.79;27.72;100284.53;4981665;28;6783;-74
2023/09/16 11:29:22;;;;;;;;;;;;;;;38.82;27.48;100288.81;4981433;28;6820;-73
2023/09/16 11:31:48;;;;;;;;;;;;;;;38.77;27.63;100283.81;4960572;28;7312;-74
2023/09/16 11:34:18;;;;;;;;;;;;;;;38.91;27.93;100285.47;4991601;28;7128;-74
2023/09/16 11:36:48;;;;;;;;;;;;;;;39.09;27.82;100269.88;4977635;28;7797;-73
2023/09/16 11:39:15;;;;;;;;;;;;;;;39.30;27.64;100272.75;4968084;28;6893;-75
2023/09/16 11:41:41;;;;;;;;;;;;;;;39.50;27.81;100266.88;4967771;28;6999;-75
2023/09/16 11:44:07;;;;;;;;;;;;;;;39.58;27.22;100264.44;4953705;28;7046;-74
2023/09/16 11:46:34;;;;;;;;;;;;;;;39.57;26.85;100263.63;4978496;28;7236;-74
2023/09/16 11:49:04;;;;;;;;;;;;;;;39.59;26.79;100263.47;4979812;28;6867;-74
2023/09/16 11:51:31;;;;;;;;;;;;;;;39.50;26.54;100261.50;4986908;28;6808;-74
2023/09/16 11:53:57;;;;;;;;;;;;;;;39.27;26.36;100262.28;4954136;28;6938;-74
2023/09/16 11:56:25;;;;;;;;;;;;;;;39.14;26.38;100262.34;4955013;28;6996;-74
2023/09/16 11:58:54;;;;;;;;;;;;;;;39.14;26.46;100259.69;4974432;28;7218;-74
2023/09/16 12:01:25;;;;;;;;;;;;;;;39.24;26.62;100256.31;4961737;28;7071;-74
2023/09/16 12:03:51;;;;;;;;;;;;;;;39.26;26.85;100257.91;4974638;28;7010;-74
2023/09/16 12:06:20;;;;;;;;;;;;;;;39.26;26.66;100249.88;4961367;28;7038;-74
2023/09/16 12:08:46;;;;;;;;;;;;;;;39.20;26.69;100252.13;4959028;28;7158;-74
2023/09/16 12:11:12;;;;;;;;;;;;;;;38.91;26.56;100250.66;4982065;28;8217;-74
2023/09/16 12:13:39;;;;;;;;;;;;;;;38.25;26.91;100249.13;4981735;28;7132;-74
2023/09/16 12:16:06;;;;;;;;;;;;;;;37.81;27.33;100250.41;4978369;28;6812;-74
2023/09/16 12:18:32;;;;;;;;;;;;;;;37.51;27.54;100245.25;4963442;28;7337;-73
2023/09/16 12:20:57;;;;;;;;;;;;;;;37.31;28.09;100245.75;4956477;28;6784;-73
2023/09/16 12:23:26;;;;;;;;;;;;;;;37.23;28.18;100236.41;4970004;28;7067;-73
2023/09/16 12:25:52;;;;;;;;;;;;;;;37.07;28.17;100238.41;4974567;28;6823;-73
2023/09/16 12:28:24;;;;;;;;;;;;;;;36.68;29.01;100240.91;4972082;28;8296;-74
2023/09/16 12:30:55;;;;;;;;;;;;;;;36.14;29.35;100246.00;4970354;28;6800;-73
2023/09/16 12:33:21;;;;;;;;;;;;;;;35.55;30.41;100246.88;4966939;28;7122;-73
2023/09/16 12:35:49;;;;;;;;;;;;;;;35.03;30.46;100254.22;4972688;28;7253;-73
2023/09/16 12:38:18;;;;;;;;;;;;;;;34.61;31.22;100261.06;4970255;28;7133;-74
2023/09/16 12:40:48;;;;;;;;;;;;;;;34.24;32.00;100253.25;4951659;28;7420;-73
2023/09/16 12:43:14;;;;;;;;;;;;;;;33.93;31.77;100250.41;4972974;28;6808;-73
2023/09/16 12:45:41;;;;;;;;;;;;;;;33.65;32.60;100257.16;4974346;28;6791;-75